AFR116 LFPG-ZSPD
Flight info
| Callsign | AFR116 |
|---|---|
| Flight time | N/A |
| Altitude | 31000 |
| Route | LANVI DCT LUPEN/N0483F330 UM164 UTABA DCT INPUL DCT VATET DCT MOPUG DCT ASNEL DCT UDROS UM859 KARDE UL851 TBN UM11 REBLO M11 MATAL/N0484F350 M11 LUSAL N199 RASAM L88 METKA B476 TIMGA A480 OTBOR/K0887F350 N147 ELAHA Z621 ARBOL M610 RULAD/K0876S1070 A343 POSOT B215 FKG W188 ESGIV/K0883S1130 W188 LIKMI W270 DKO W69 HUR B339 SOTMU/K0876S1160 W98 ELKUR W40 DOXAB/K0874S1130 W40 YQG/K0882S1160 W142 DALIM/K0874S1130 A593 DPX A470 DALNU W166 ZJ W167 SASAN SAS81A |
| Aircraft | B77W/H-SDE1E2E3FGHIJ2J3J4J5M1RWXY/LB1D1 |
Departure
| Time | 2026-05-04 21:49 |
|---|---|
| Airport | Charles de Gaulle International Airport (LFPG) |
Arrival
| Time | N/A |
|---|---|
| Airport | Shanghai Pudong International Airport (ZSPD) |
| Time | Latitude | Longitude | Altitude | Speed | Heading |
|---|---|---|---|---|---|
| 2026-05-04 20:47 | 49.00639 | 2.58936 | 367 ft | 0 kts | 85° |
| 2026-05-04 21:35 | 49.00638 | 2.58925 | 366 ft | 4 kts | 85° |
| 2026-05-04 21:35 | 49.00636 | 2.58884 | 367 ft | 4 kts | 85° |
| 2026-05-04 21:36 | 49.00635 | 2.58849 | 366 ft | 4 kts | 109° |
| 2026-05-04 21:36 | 49.00649 | 2.58827 | 366 ft | 4 kts | 173° |
| 2026-05-04 21:36 | 49.00672 | 2.58825 | 367 ft | 0 kts | 175° |
| 2026-05-04 21:41 | 49.00669 | 2.58825 | 363 ft | 3 kts | 175° |
| 2026-05-04 21:41 | 49.00612 | 2.58832 | 363 ft | 14 kts | 175° |
| 2026-05-04 21:41 | 49.00515 | 2.58844 | 364 ft | 14 kts | 175° |
| 2026-05-04 21:42 | 49.00417 | 2.58856 | 365 ft | 14 kts | 175° |
| 2026-05-04 21:42 | 49.00319 | 2.58868 | 360 ft | 14 kts | 175° |
| 2026-05-04 21:42 | 49.00224 | 2.58880 | 361 ft | 13 kts | 175° |
| 2026-05-04 21:42 | 49.00133 | 2.58891 | 364 ft | 13 kts | 175° |
| 2026-05-04 21:43 | 49.00062 | 2.58881 | 366 ft | 10 kts | 211° |
| 2026-05-04 21:43 | 49.00034 | 2.58787 | 359 ft | 10 kts | 256° |
| 2026-05-04 21:43 | 48.99979 | 2.58735 | 359 ft | 10 kts | 191° |
| 2026-05-04 21:43 | 48.99940 | 2.58657 | 365 ft | 11 kts | 262° |
| 2026-05-04 21:44 | 48.99931 | 2.58504 | 359 ft | 19 kts | 266° |
| 2026-05-04 21:44 | 48.99917 | 2.58260 | 365 ft | 26 kts | 265° |
| 2026-05-04 21:44 | 48.99902 | 2.57969 | 365 ft | 29 kts | 266° |
| 2026-05-04 21:44 | 48.99888 | 2.57664 | 361 ft | 29 kts | 266° |
| 2026-05-04 21:45 | 48.99870 | 2.57361 | 364 ft | 28 kts | 265° |
| 2026-05-04 21:45 | 48.99855 | 2.57066 | 360 ft | 28 kts | 266° |
| 2026-05-04 21:45 | 48.99840 | 2.56793 | 361 ft | 20 kts | 264° |
| 2026-05-04 21:45 | 48.99828 | 2.56582 | 367 ft | 20 kts | 265° |
| 2026-05-04 21:46 | 48.99819 | 2.56375 | 359 ft | 20 kts | 265° |
| 2026-05-04 21:46 | 48.99806 | 2.56171 | 360 ft | 19 kts | 265° |
| 2026-05-04 21:46 | 48.99798 | 2.55974 | 365 ft | 15 kts | 268° |
| 2026-05-04 21:46 | 48.99767 | 2.55830 | 368 ft | 13 kts | 228° |
| 2026-05-04 21:47 | 48.99688 | 2.55818 | 362 ft | 11 kts | 176° |
| 2026-05-04 21:47 | 48.99612 | 2.55830 | 364 ft | 11 kts | 156° |
| 2026-05-04 21:47 | 48.99603 | 2.55937 | 360 ft | 13 kts | 82° |
| 2026-05-04 21:47 | 48.99620 | 2.56227 | 364 ft | 50 kts | 85° |
| 2026-05-04 21:48 | 48.99667 | 2.57102 | 360 ft | 116 kts | 85° |
| 2026-05-04 21:48 | 48.99749 | 2.58619 | 358 ft | 170 kts | 85° |
| 2026-05-04 21:48 | 48.99859 | 2.60580 | 457 ft | 197 kts | 85° |
| 2026-05-04 21:48 | 48.99971 | 2.62657 | 924 ft | 202 kts | 85° |
| 2026-05-04 21:49 | 49.00069 | 2.64776 | 1468 ft | 199 kts | 85° |
| 2026-05-04 21:49 | 49.00176 | 2.66891 | 1996 ft | 201 kts | 85° |
| 2026-05-04 21:49 | 49.00288 | 2.69022 | 2370 ft | 211 kts | 89° |
| 2026-05-04 21:49 | 49.00129 | 2.71350 | 2539 ft | 232 kts | 103° |
| 2026-05-04 21:50 | 48.99655 | 2.73786 | 2763 ft | 250 kts | 102° |
| 2026-05-04 21:50 | 48.99432 | 2.76455 | 3178 ft | 258 kts | 95° |
| 2026-05-04 21:50 | 48.99295 | 2.79226 | 3747 ft | 264 kts | 94° |
| 2026-05-04 21:50 | 48.99156 | 2.82032 | 4342 ft | 268 kts | 95° |
| 2026-05-04 21:51 | 48.99000 | 2.84867 | 4965 ft | 270 kts | 95° |